createdAt,value
2018-12-12T00:00:05.716Z,3.50
2018-12-12T00:01:05.864Z,3.50
2018-12-12T00:02:05.966Z,3.50
2018-12-12T00:03:06.002Z,3.50
2018-12-12T00:04:05.239Z,3.50
2018-12-12T00:05:05.708Z,3.50
2018-12-12T00:06:05.854Z,3.50
2018-12-12T00:07:05.944Z,3.50
2018-12-12T00:08:05.530Z,3.50
2018-12-12T00:09:05.127Z,3.50
2018-12-12T00:10:05.773Z,3.50
2018-12-12T00:11:06.004Z,3.50
2018-12-12T00:12:05.790Z,3.50
2018-12-12T00:13:05.933Z,3.50
2018-12-12T00:14:06.002Z,3.50
2018-12-12T00:15:05.373Z,3.50
2018-12-12T00:16:05.842Z,3.50
2018-12-12T00:17:05.460Z,3.50
2018-12-12T00:18:05.777Z,3.50
2018-12-12T00:19:05.449Z,3.50
2018-12-12T00:20:05.646Z,3.50
2018-12-12T00:21:05.794Z,3.50
2018-12-12T00:22:05.933Z,3.50
2018-12-12T00:23:05.124Z,3.50
2018-12-12T00:24:05.602Z,3.50
2018-12-12T00:25:05.300Z,3.50
2018-12-12T00:26:05.303Z,3.50
2018-12-12T00:27:05.846Z,3.44
2018-12-12T00:28:05.064Z,3.44
2018-12-12T00:29:05.451Z,3.44
2018-12-12T00:30:06.011Z,3.44
2018-12-12T00:31:05.293Z,3.44
2018-12-12T00:32:05.619Z,3.44
2018-12-12T00:33:05.781Z,3.44
2018-12-12T00:34:05.772Z,3.44
2018-12-12T00:35:06.009Z,3.44
2018-12-12T00:36:05.376Z,3.44
2018-12-12T00:37:05.456Z,3.44
2018-12-12T00:38:06.188Z,3.44
2018-12-12T00:39:05.207Z,3.44
2018-12-12T00:40:05.379Z,3.44
2018-12-12T00:41:05.854Z,3.44
2018-12-12T00:42:05.299Z,3.44
2018-12-12T00:43:05.690Z,3.44
2018-12-12T00:44:05.761Z,3.38
2018-12-12T00:45:05.868Z,3.38
2018-12-12T00:46:05.853Z,3.38
2018-12-12T00:47:05.540Z,3.38
2018-12-12T00:48:05.854Z,3.38
2018-12-12T00:49:05.219Z,3.38
2018-12-12T00:50:05.301Z,3.38
2018-12-12T00:51:05.386Z,3.38
2018-12-12T00:52:05.934Z,3.38
2018-12-12T00:53:06.012Z,3.38
2018-12-12T00:54:05.215Z,3.38
2018-12-12T00:55:05.463Z,3.38
2018-12-12T00:56:05.631Z,3.38
2018-12-12T00:57:05.614Z,3.38
2018-12-12T00:58:05.298Z,3.38
2018-12-12T00:59:06.107Z,3.38
2018-12-12T01:00:05.854Z,3.38
2018-12-12T01:01:05.052Z,3.38
2018-12-12T01:02:05.521Z,3.38
2018-12-12T01:03:05.128Z,3.38
2018-12-12T01:04:05.612Z,3.38
2018-12-12T01:05:05.789Z,3.38
2018-12-12T01:06:05.611Z,3.38
2018-12-12T01:07:05.495Z,3.38
2018-12-12T01:08:05.630Z,3.38
2018-12-12T01:09:05.698Z,3.38
2018-12-12T01:10:05.324Z,3.38
2018-12-12T01:11:05.469Z,3.38
2018-12-12T01:12:05.538Z,3.38
2018-12-12T01:13:05.131Z,3.38
2018-12-12T01:14:05.786Z,3.38
2018-12-12T01:15:05.212Z,3.38
2018-12-12T01:16:05.134Z,3.38
2018-12-12T01:17:05.692Z,3.31
2018-12-12T01:18:05.454Z,3.38
2018-12-12T01:19:05.930Z,3.38
2018-12-12T01:20:05.526Z,3.38
2018-12-12T01:21:05.611Z,3.31
2018-12-12T01:22:05.688Z,3.31
2018-12-12T01:23:06.015Z,3.31
2018-12-12T01:24:05.448Z,3.31
2018-12-12T01:25:05.538Z,3.31
2018-12-12T01:26:05.692Z,3.31
2018-12-12T01:27:05.958Z,3.31
2018-12-12T01:28:05.375Z,3.31
2018-12-12T01:29:05.773Z,3.31
2018-12-12T01:30:05.207Z,3.31
2018-12-12T01:31:05.637Z,3.31
2018-12-12T01:32:05.776Z,3.31
2018-12-12T01:33:05.942Z,3.31
2018-12-12T01:34:05.299Z,3.31
2018-12-12T01:35:05.772Z,3.31
2018-12-12T01:36:05.220Z,3.31
2018-12-12T01:37:05.687Z,3.31
2018-12-12T01:38:05.382Z,3.25
2018-12-12T01:39:05.775Z,3.25
2018-12-12T01:40:06.040Z,3.25
2018-12-12T01:41:05.150Z,3.25
2018-12-12T01:42:05.212Z,3.25
2018-12-12T01:43:05.372Z,3.25
2018-12-12T01:44:05.541Z,3.25
2018-12-12T01:45:05.530Z,3.25
2018-12-12T01:46:05.784Z,3.25
2018-12-12T01:47:05.857Z,3.25
2018-12-12T01:48:05.954Z,3.19
2018-12-12T01:49:05.546Z,3.25
2018-12-12T01:50:05.713Z,3.19
2018-12-12T01:51:05.849Z,3.19
2018-12-12T01:52:05.541Z,3.19
2018-12-12T01:53:05.535Z,3.19
2018-12-12T01:54:05.848Z,3.19
2018-12-12T01:55:05.627Z,3.19
2018-12-12T01:56:06.118Z,3.19
2018-12-12T01:57:05.063Z,3.19
2018-12-12T01:58:05.292Z,3.19
2018-12-12T01:59:05.216Z,3.19
2018-12-12T02:00:05.523Z,3.12
2018-12-12T02:01:05.694Z,3.12
2018-12-12T02:02:06.035Z,3.12
2018-12-12T02:03:05.215Z,3.12
2018-12-12T02:04:05.129Z,3.12
2018-12-12T02:05:05.284Z,3.12
2018-12-12T02:06:05.368Z,3.12
2018-12-12T02:07:05.938Z,3.12
2018-12-12T02:08:05.214Z,3.12
2018-12-12T02:09:05.362Z,3.12
2018-12-12T02:10:05.702Z,3.12
2018-12-12T02:11:05.063Z,3.12
2018-12-12T02:12:05.725Z,3.12
2018-12-12T02:13:05.769Z,3.12
2018-12-12T02:14:05.857Z,3.12
2018-12-12T02:15:05.308Z,3.06
2018-12-12T02:16:05.467Z,3.06
2018-12-12T02:17:05.624Z,3.06
2018-12-12T02:18:05.781Z,3.06
2018-12-12T02:19:05.161Z,3.06
2018-12-12T02:20:05.534Z,3.06
2018-12-12T02:21:05.219Z,3.06
2018-12-12T02:22:05.621Z,3.06
2018-12-12T02:23:05.779Z,3.06
2018-12-12T02:24:05.868Z,3.06
2018-12-12T02:25:05.938Z,3.06
2018-12-12T02:26:06.122Z,3.00
2018-12-12T02:27:05.130Z,3.00
2018-12-12T02:28:05.610Z,3.06
2018-12-12T02:29:05.711Z,3.00
2018-12-12T02:30:05.697Z,3.00
2018-12-12T02:31:05.142Z,3.00
2018-12-12T02:32:05.221Z,3.00
2018-12-12T02:33:05.705Z,3.00
2018-12-12T02:34:05.236Z,3.00
2018-12-12T02:35:05.294Z,3.00
2018-12-12T02:36:05.391Z,3.00
2018-12-12T02:37:06.027Z,3.00
2018-12-12T02:38:06.100Z,3.00
2018-12-12T02:39:05.137Z,3.00
2018-12-12T02:40:05.864Z,3.00
2018-12-12T02:41:05.060Z,2.94
2018-12-12T02:42:05.685Z,2.94
2018-12-12T02:43:05.854Z,2.94
2018-12-12T02:44:05.386Z,2.94
2018-12-12T02:45:05.387Z,2.94
2018-12-12T02:46:05.622Z,2.94
2018-12-12T02:47:05.297Z,2.94
2018-12-12T02:48:05.539Z,2.94
2018-12-12T02:49:06.030Z,2.94
2018-12-12T02:50:05.220Z,2.94
2018-12-12T02:51:05.774Z,2.94
2018-12-12T02:52:05.285Z,2.94
2018-12-12T02:53:05.776Z,2.94
2018-12-12T02:54:05.056Z,2.94
2018-12-12T02:55:05.305Z,2.94
2018-12-12T02:56:05.461Z,2.94
2018-12-12T02:57:05.868Z,2.94
2018-12-12T02:58:05.223Z,2.94
2018-12-12T02:59:05.380Z,2.94
2018-12-12T03:00:05.789Z,2.94
2018-12-12T03:01:05.289Z,2.94
2018-12-12T03:02:06.005Z,2.94
2018-12-12T03:03:05.691Z,2.88
2018-12-12T03:04:05.868Z,2.88
2018-12-12T03:05:05.381Z,2.88
2018-12-12T03:06:05.857Z,2.88
2018-12-12T03:07:05.372Z,2.88
2018-12-12T03:08:05.542Z,2.88
2018-12-12T03:09:05.130Z,2.88
2018-12-12T03:10:05.766Z,2.88
2018-12-12T03:11:06.023Z,2.88
2018-12-12T03:12:05.152Z,2.88
2018-12-12T03:13:05.225Z,2.88
2018-12-12T03:14:05.392Z,2.88
2018-12-12T03:15:05.449Z,2.88
2018-12-12T03:16:05.212Z,2.88
2018-12-12T03:17:05.400Z,2.88
2018-12-12T03:18:05.308Z,2.88
2018-12-12T03:19:05.943Z,2.88
2018-12-12T03:20:05.284Z,2.88
2018-12-12T03:21:06.042Z,2.81
2018-12-12T03:22:05.149Z,2.81
2018-12-12T03:23:05.140Z,2.81
2018-12-12T03:24:05.547Z,2.81
2018-12-12T03:25:05.774Z,2.81
2018-12-12T03:26:05.930Z,2.81
2018-12-12T03:27:05.362Z,2.81
2018-12-12T03:28:05.783Z,2.81
2018-12-12T03:29:06.137Z,2.81
2018-12-12T03:30:05.135Z,2.81
2018-12-12T03:31:05.218Z,2.81
2018-12-12T03:32:05.448Z,2.81
2018-12-12T03:33:05.133Z,2.81
2018-12-12T03:34:05.374Z,2.81
2018-12-12T03:35:05.924Z,2.81
2018-12-12T03:36:05.535Z,2.81
2018-12-12T03:37:05.050Z,2.81
2018-12-12T03:38:05.312Z,2.81
2018-12-12T03:39:05.618Z,2.81
2018-12-12T03:40:05.943Z,2.81
2018-12-12T03:41:05.640Z,2.75
2018-12-12T03:42:05.605Z,2.75
2018-12-12T03:43:05.688Z,2.75
2018-12-12T03:44:05.300Z,2.75
2018-12-12T03:45:05.304Z,2.75
2018-12-12T03:46:05.612Z,2.75
2018-12-12T03:47:05.784Z,2.75
2018-12-12T03:48:06.095Z,2.75
2018-12-12T03:49:05.132Z,2.75
2018-12-12T03:50:05.379Z,2.75
2018-12-12T03:51:05.614Z,2.75
2018-12-12T03:52:05.789Z,2.75
2018-12-12T03:53:05.777Z,2.75
2018-12-12T03:54:05.222Z,2.75
2018-12-12T03:55:05.529Z,2.75
2018-12-12T03:56:05.765Z,2.75
2018-12-12T03:57:05.944Z,2.69
2018-12-12T03:58:06.040Z,2.75
2018-12-12T03:59:05.530Z,2.69
2018-12-12T04:00:05.127Z,2.69
2018-12-12T04:01:05.854Z,2.69
2018-12-12T04:02:05.538Z,2.69
2018-12-12T04:03:05.611Z,2.69
2018-12-12T04:04:05.043Z,2.69
2018-12-12T04:05:05.656Z,2.75
2018-12-12T04:06:05.770Z,2.75
2018-12-12T04:07:05.940Z,2.69
2018-12-12T04:08:05.376Z,2.69
2018-12-12T04:09:05.771Z,2.69
2018-12-12T04:10:05.423Z,2.69
2018-12-12T04:11:05.787Z,2.69
2018-12-12T04:12:06.025Z,2.69
2018-12-12T04:13:05.945Z,2.69
2018-12-12T04:14:05.483Z,2.69
2018-12-12T04:15:05.688Z,2.69
2018-12-12T04:16:05.236Z,2.69
2018-12-12T04:17:05.903Z,2.69
2018-12-12T04:18:05.765Z,2.69
2018-12-12T04:19:05.435Z,2.69
2018-12-12T04:20:05.876Z,2.69
2018-12-12T04:21:05.450Z,2.69
2018-12-12T04:22:05.934Z,2.69
2018-12-12T04:23:05.139Z,2.69
2018-12-12T04:24:05.540Z,2.69
2018-12-12T04:25:05.696Z,2.69
2018-12-12T04:26:05.221Z,2.69
2018-12-12T04:27:05.547Z,2.69
2018-12-12T04:28:05.806Z,2.62
2018-12-12T04:29:05.053Z,2.62
2018-12-12T04:30:05.781Z,2.62
2018-12-12T04:31:05.937Z,2.69
2018-12-12T04:32:05.932Z,2.62
2018-12-12T04:33:05.629Z,2.62
2018-12-12T04:34:05.695Z,2.62
2018-12-12T04:35:05.924Z,2.69
2018-12-12T04:36:05.212Z,2.62
2018-12-12T04:37:05.617Z,2.62
2018-12-12T04:38:05.138Z,2.62
2018-12-12T04:39:05.459Z,2.62
2018-12-12T04:40:05.691Z,2.62
2018-12-12T04:41:05.062Z,2.62
2018-12-12T04:42:05.855Z,2.62
2018-12-12T04:43:05.944Z,2.62
2018-12-12T04:44:05.043Z,2.62
2018-12-12T04:45:05.257Z,2.62
2018-12-12T04:46:05.771Z,2.62
2018-12-12T04:47:05.940Z,2.62
2018-12-12T04:48:05.231Z,2.62
2018-12-12T04:49:05.137Z,2.62
2018-12-12T04:50:05.874Z,2.62
2018-12-12T04:51:06.018Z,2.62
2018-12-12T04:52:05.142Z,2.62
2018-12-12T04:53:05.456Z,2.62
2018-12-12T04:54:05.617Z,2.62
2018-12-12T04:55:05.714Z,2.62
2018-12-12T04:56:05.773Z,2.62
2018-12-12T04:57:05.942Z,2.62
2018-12-12T04:58:06.020Z,2.62
2018-12-12T04:59:05.210Z,2.62
2018-12-12T05:00:05.793Z,2.62
2018-12-12T05:01:05.857Z,2.62
2018-12-12T05:02:05.788Z,2.62
2018-12-12T05:03:05.292Z,2.62
2018-12-12T05:04:05.463Z,2.62
2018-12-12T05:05:05.527Z,2.62
2018-12-12T05:06:05.227Z,2.62
2018-12-12T05:07:05.149Z,2.62
2018-12-12T05:08:05.224Z,2.62
2018-12-12T05:09:05.462Z,2.62
2018-12-12T05:10:05.716Z,2.62
2018-12-12T05:11:05.772Z,2.62
2018-12-12T05:12:05.929Z,2.62
2018-12-12T05:13:05.225Z,2.62
2018-12-12T05:14:05.381Z,2.62
2018-12-12T05:15:05.792Z,2.62
2018-12-12T05:16:05.796Z,2.62
2018-12-12T05:17:06.092Z,2.62
2018-12-12T05:18:06.018Z,2.62
2018-12-12T05:19:05.206Z,2.62
2018-12-12T05:20:05.686Z,2.62
2018-12-12T05:21:05.369Z,2.62
2018-12-12T05:22:06.036Z,2.62
2018-12-12T05:23:05.604Z,2.62
2018-12-12T05:24:05.232Z,2.62
2018-12-12T05:25:05.675Z,2.62
2018-12-12T05:26:05.454Z,2.62
2018-12-12T05:27:06.836Z,2.62
2018-12-12T05:28:05.064Z,2.62
2018-12-12T05:29:05.708Z,2.62
2018-12-12T05:30:05.211Z,2.62
2018-12-12T05:31:05.453Z,2.62
2018-12-12T05:32:06.012Z,2.62
2018-12-12T05:33:05.215Z,2.62
2018-12-12T05:34:05.699Z,2.62
2018-12-12T05:35:06.031Z,2.62
2018-12-12T05:36:05.079Z,2.62
2018-12-12T05:37:05.383Z,2.62
2018-12-12T05:38:05.392Z,2.62
2018-12-12T05:39:05.451Z,2.62
2018-12-12T05:40:05.053Z,2.62
2018-12-12T05:41:05.220Z,2.62
2018-12-12T05:42:05.474Z,2.62
2018-12-12T05:43:05.529Z,2.62
2018-12-12T05:44:05.611Z,2.62
2018-12-12T05:45:05.292Z,2.62
2018-12-12T05:46:05.640Z,2.62
2018-12-12T05:47:05.698Z,2.62
2018-12-12T05:48:05.456Z,2.62
2018-12-12T05:49:05.931Z,2.62
2018-12-12T05:50:05.546Z,2.62
2018-12-12T05:51:05.702Z,2.62
2018-12-12T05:52:05.866Z,2.62
2018-12-12T05:53:05.860Z,2.62
2018-12-12T05:54:05.146Z,2.62
2018-12-12T05:55:05.452Z,2.62
2018-12-12T05:56:05.478Z,2.62
2018-12-12T05:57:05.628Z,2.62
2018-12-12T05:58:06.004Z,2.62
2018-12-12T05:59:05.695Z,2.62
2018-12-12T06:00:05.685Z,2.62
2018-12-12T06:01:05.930Z,2.62
2018-12-12T06:02:05.541Z,2.62
2018-12-12T06:03:05.615Z,2.62
2018-12-12T06:04:05.613Z,2.62
2018-12-12T06:05:05.287Z,2.62
2018-12-12T06:06:06.012Z,2.69
2018-12-12T06:07:05.123Z,2.69
2018-12-12T06:08:05.700Z,2.69
2018-12-12T06:09:05.694Z,2.69
2018-12-12T06:10:05.301Z,2.62
2018-12-12T06:11:05.700Z,2.62
2018-12-12T06:12:05.869Z,2.69
2018-12-12T06:13:06.019Z,2.69
2018-12-12T06:14:05.208Z,2.69
2018-12-12T06:15:05.531Z,2.69
2018-12-12T06:16:07.130Z,2.62
2018-12-12T06:17:05.966Z,2.69
2018-12-12T06:18:05.927Z,2.69
2018-12-12T06:19:05.380Z,2.69
2018-12-12T06:20:05.932Z,2.69
2018-12-12T06:21:05.593Z,2.69
2018-12-12T06:22:05.860Z,2.69
2018-12-12T06:23:05.305Z,2.69
2018-12-12T06:24:05.369Z,2.69
2018-12-12T06:25:05.452Z,2.69
2018-12-12T06:26:05.693Z,2.69
2018-12-12T06:27:05.057Z,2.62
2018-12-12T06:28:05.129Z,2.69
2018-12-12T06:29:05.329Z,2.69
2018-12-12T06:30:05.366Z,2.69
2018-12-12T06:31:05.069Z,2.69
2018-12-12T06:32:05.773Z,2.62
2018-12-12T06:33:05.864Z,2.69
2018-12-12T06:34:05.932Z,2.69
2018-12-12T06:35:05.233Z,2.69
2018-12-12T06:36:05.704Z,2.69
2018-12-12T06:37:05.929Z,2.69
2018-12-12T06:38:05.377Z,2.69
2018-12-12T06:39:05.352Z,2.69
2018-12-12T06:40:05.638Z,2.69
2018-12-12T06:41:05.854Z,2.69
2018-12-12T06:42:05.940Z,2.69
2018-12-12T06:43:06.098Z,2.69
2018-12-12T06:44:05.630Z,2.69
2018-12-12T06:45:05.937Z,2.69
2018-12-12T06:46:06.118Z,2.69
2018-12-12T06:47:05.546Z,2.69
2018-12-12T06:48:05.628Z,2.69
2018-12-12T06:49:05.709Z,2.69
2018-12-12T06:50:05.694Z,2.69
2018-12-12T06:51:05.676Z,2.69
2018-12-12T06:52:05.229Z,2.69
2018-12-12T06:53:05.292Z,2.69
2018-12-12T06:54:05.613Z,2.69
2018-12-12T06:55:05.779Z,2.69
2018-12-12T06:56:05.149Z,2.69
2018-12-12T06:57:06.018Z,2.69
2018-12-12T06:58:05.556Z,2.69
2018-12-12T06:59:05.616Z,2.69
2018-12-12T07:00:05.291Z,2.69
2018-12-12T07:01:05.631Z,2.69
2018-12-12T07:02:05.773Z,2.69
2018-12-12T07:03:06.024Z,2.69
2018-12-12T07:04:05.224Z,2.69
2018-12-12T07:05:05.527Z,2.69
2018-12-12T07:06:05.222Z,2.69
2018-12-12T07:07:05.221Z,2.69
2018-12-12T07:08:05.447Z,2.69
2018-12-12T07:09:05.696Z,2.69
2018-12-12T07:10:05.786Z,2.69
2018-12-12T07:11:05.130Z,2.75
2018-12-12T07:12:05.868Z,2.75
2018-12-12T07:13:05.369Z,2.75
2018-12-12T07:14:05.346Z,2.69
2018-12-12T07:15:05.409Z,2.75
2018-12-12T07:16:05.706Z,2.75
2018-12-12T07:17:05.852Z,2.75
2018-12-12T07:18:05.160Z,2.75
2018-12-12T07:19:05.311Z,2.75
2018-12-12T07:20:05.458Z,2.75
2018-12-12T07:21:05.880Z,2.75
2018-12-12T07:22:06.017Z,2.75
2018-12-12T07:23:05.470Z,2.75
2018-12-12T07:24:05.620Z,2.75
2018-12-12T07:25:05.694Z,2.75
2018-12-12T07:26:05.414Z,2.75
2018-12-12T07:27:05.538Z,2.75
2018-12-12T07:28:05.637Z,2.75
2018-12-12T07:29:05.772Z,2.75
2018-12-12T07:30:05.451Z,2.75
2018-12-12T07:31:05.128Z,2.75
2018-12-12T07:32:05.773Z,2.75
2018-12-12T07:33:06.098Z,2.75
2018-12-12T07:34:05.308Z,2.75
2018-12-12T07:35:05.288Z,2.75
2018-12-12T07:36:05.630Z,2.75
2018-12-12T07:37:05.949Z,2.75
2018-12-12T07:38:05.461Z,2.75
2018-12-12T07:39:05.624Z,2.75
2018-12-12T07:40:05.453Z,2.75
2018-12-12T07:41:05.846Z,2.75
2018-12-12T07:42:05.526Z,2.75
2018-12-12T07:43:06.019Z,2.75
2018-12-12T07:44:05.154Z,2.81
2018-12-12T07:45:06.519Z,2.75
2018-12-12T07:46:05.761Z,2.81
2018-12-12T07:47:05.439Z,2.75
2018-12-12T07:48:05.615Z,2.75
2018-12-12T07:49:05.049Z,2.75
2018-12-12T07:50:06.064Z,2.75
2018-12-12T07:51:06.011Z,2.75
2018-12-12T07:52:05.773Z,2.75
2018-12-12T07:53:05.464Z,2.75
2018-12-12T07:54:05.531Z,2.75
2018-12-12T07:55:05.223Z,2.75
2018-12-12T07:56:05.846Z,2.75
2018-12-12T07:57:05.368Z,2.81
2018-12-12T07:58:05.692Z,2.81
2018-12-12T07:59:06.007Z,2.81
2018-12-12T08:00:05.690Z,2.81
2018-12-12T08:01:05.357Z,2.81
2018-12-12T08:02:06.004Z,2.81
2018-12-12T08:03:06.470Z,2.81
2018-12-12T08:04:05.053Z,2.81
2018-12-12T08:05:05.135Z,2.81
2018-12-12T08:06:05.461Z,2.81
2018-12-12T08:07:05.689Z,2.81
2018-12-12T08:08:06.006Z,2.81
2018-12-12T08:09:05.294Z,2.81
2018-12-12T08:10:05.530Z,2.81
2018-12-12T08:11:05.920Z,2.81
2018-12-12T08:12:05.210Z,2.81
2018-12-12T08:13:05.692Z,2.81
2018-12-12T08:14:05.922Z,2.81
2018-12-12T08:15:05.563Z,2.81
2018-12-12T08:16:05.608Z,2.81
2018-12-12T08:17:05.852Z,2.81
2018-12-12T08:18:05.307Z,2.81
2018-12-12T08:19:05.767Z,2.81
2018-12-12T08:20:05.216Z,2.81
2018-12-12T08:21:05.785Z,2.81
2018-12-12T08:22:06.367Z,2.81
2018-12-12T08:23:06.176Z,2.81
2018-12-12T08:24:05.536Z,2.81
2018-12-12T08:25:05.130Z,2.81
2018-12-12T08:26:05.696Z,2.81
2018-12-12T08:27:05.780Z,2.81
2018-12-12T08:28:05.371Z,2.88
2018-12-12T08:29:05.770Z,2.81
2018-12-12T08:30:05.209Z,2.81
2018-12-12T08:31:05.609Z,2.81
2018-12-12T08:32:05.363Z,2.81
2018-12-12T08:33:11.067Z,2.81
2018-12-12T08:34:05.695Z,2.81
2018-12-12T08:35:05.232Z,2.81
2018-12-12T08:36:05.538Z,2.81
2018-12-12T08:37:06.101Z,2.81
2018-12-12T08:38:05.062Z,2.81
2018-12-12T08:39:05.302Z,2.81
2018-12-12T08:40:05.443Z,2.88
2018-12-12T08:41:05.538Z,2.88
2018-12-12T08:42:05.295Z,2.88
2018-12-12T08:43:05.204Z,2.88
2018-12-12T08:44:06.094Z,2.88
2018-12-12T08:45:05.696Z,2.88
2018-12-12T08:46:05.767Z,2.88
2018-12-12T08:47:05.125Z,2.88
2018-12-12T08:48:05.612Z,2.88
2018-12-12T08:49:05.121Z,2.88
2018-12-12T08:50:05.378Z,2.88
2018-12-12T08:51:05.549Z,2.88
2018-12-12T08:52:05.607Z,2.88
2018-12-12T08:53:05.832Z,2.88
2018-12-12T08:54:05.465Z,2.88
2018-12-12T08:55:06.502Z,2.88
2018-12-12T08:56:05.556Z,2.88
2018-12-12T08:57:05.694Z,2.88
2018-12-12T08:58:05.767Z,2.88
2018-12-12T08:59:06.097Z,2.88
2018-12-12T09:00:05.549Z,2.88
2018-12-12T09:01:05.786Z,2.88
2018-12-12T09:02:05.885Z,2.88
2018-12-12T09:03:05.217Z,2.88
2018-12-12T09:04:05.452Z,2.88
2018-12-12T09:05:05.547Z,2.88
2018-12-12T09:06:05.632Z,2.88
2018-12-12T09:07:05.708Z,2.88
2018-12-12T09:08:05.306Z,2.88
2018-12-12T09:09:05.362Z,2.88
2018-12-12T09:10:05.942Z,2.88
2018-12-12T09:11:06.005Z,2.88
2018-12-12T09:12:06.010Z,2.88
2018-12-12T09:13:05.472Z,2.88
2018-12-12T09:14:05.447Z,2.88
2018-12-12T09:15:06.110Z,2.88
2018-12-12T09:16:05.133Z,2.88
2018-12-12T09:17:09.575Z,2.88
2018-12-12T09:18:05.363Z,2.88
2018-12-12T09:19:05.046Z,2.94
2018-12-12T09:20:05.691Z,2.94
2018-12-12T09:21:05.317Z,2.94
2018-12-12T09:22:05.480Z,2.94
2018-12-12T09:23:05.546Z,2.94
2018-12-12T09:24:05.856Z,2.94
2018-12-12T09:25:05.366Z,2.94
2018-12-12T09:26:05.929Z,2.94
2018-12-12T09:27:05.219Z,2.94
2018-12-12T09:28:05.143Z,2.94
2018-12-12T09:29:05.613Z,2.94
2018-12-12T09:30:05.928Z,2.94
2018-12-12T09:31:05.140Z,2.94
2018-12-12T09:32:05.772Z,3.00
2018-12-12T09:33:05.769Z,3.00
2018-12-12T09:34:06.011Z,3.00
2018-12-12T09:35:05.318Z,3.00
2018-12-12T09:36:05.925Z,3.00
2018-12-12T09:37:05.459Z,3.00
2018-12-12T09:38:05.546Z,3.00
2018-12-12T09:39:05.051Z,3.00
2018-12-12T09:40:05.304Z,3.00
2018-12-12T09:41:05.370Z,3.00
2018-12-12T09:42:05.933Z,3.00
2018-12-12T09:43:05.375Z,3.00
2018-12-12T09:44:05.531Z,3.00
2018-12-12T09:45:05.722Z,3.00
2018-12-12T09:46:05.856Z,3.00
2018-12-12T09:47:06.004Z,3.00
2018-12-12T09:48:05.599Z,3.00
2018-12-12T09:49:05.137Z,3.00
2018-12-12T09:50:05.255Z,3.00
2018-12-12T09:51:07.204Z,3.00
2018-12-12T09:52:06.015Z,3.00
2018-12-12T09:53:05.683Z,3.00
2018-12-12T09:54:05.296Z,3.00
2018-12-12T09:55:05.287Z,3.00
2018-12-12T09:56:05.845Z,3.00
2018-12-12T09:57:06.020Z,3.00
2018-12-12T09:58:06.012Z,3.00
2018-12-12T09:59:05.220Z,3.00
2018-12-12T10:00:05.668Z,3.00
2018-12-12T10:01:06.893Z,3.06
2018-12-12T10:02:06.015Z,3.06
2018-12-12T10:03:06.739Z,3.06
2018-12-12T10:04:05.753Z,3.06
2018-12-12T10:05:05.937Z,3.06
2018-12-12T10:06:05.427Z,3.06
2018-12-12T10:07:06.023Z,3.06
2018-12-12T10:08:05.046Z,3.06
2018-12-12T10:09:05.302Z,3.06
2018-12-12T10:10:05.370Z,3.06
2018-12-12T10:11:05.932Z,3.06
2018-12-12T10:12:05.386Z,3.06
2018-12-12T10:13:05.372Z,3.06
2018-12-12T10:14:05.055Z,3.06
2018-12-12T10:15:05.373Z,3.06
2018-12-12T10:16:05.540Z,3.06
2018-12-12T10:17:06.096Z,3.06
2018-12-12T10:18:05.378Z,3.06
2018-12-12T10:19:05.540Z,3.06
2018-12-12T10:20:05.946Z,3.06
2018-12-12T10:21:05.714Z,3.06
2018-12-12T10:22:05.775Z,3.06
2018-12-12T10:23:05.393Z,3.06
2018-12-12T10:24:05.524Z,3.00
2018-12-12T10:25:05.165Z,3.06
2018-12-12T10:26:05.380Z,3.06
2018-12-12T10:27:05.532Z,3.06
2018-12-12T10:28:05.929Z,3.06
2018-12-12T10:29:05.442Z,3.06
2018-12-12T10:30:06.099Z,3.06
2018-12-12T10:31:05.220Z,3.06
2018-12-12T10:32:05.617Z,3.00
2018-12-12T10:33:05.939Z,3.06
2018-12-12T10:34:05.619Z,3.00
2018-12-12T10:35:05.692Z,3.00
2018-12-12T10:36:05.858Z,3.06
2018-12-12T10:37:05.449Z,3.00
2018-12-12T10:38:06.040Z,3.00
2018-12-12T10:39:05.612Z,3.00
2018-12-12T10:40:05.777Z,3.06
2018-12-12T10:41:05.220Z,3.00
2018-12-12T10:42:05.708Z,3.06
2018-12-12T10:43:05.772Z,3.00
2018-12-12T10:44:05.298Z,3.06
2018-12-12T10:45:05.782Z,3.06
2018-12-12T10:46:05.852Z,3.00
2018-12-12T10:47:05.135Z,3.00
2018-12-12T10:48:05.770Z,3.00
2018-12-12T10:49:05.848Z,3.00
2018-12-12T10:50:05.578Z,3.00
2018-12-12T10:51:05.792Z,3.00
2018-12-12T10:52:05.694Z,3.00
2018-12-12T10:53:05.798Z,3.00
2018-12-12T10:54:05.136Z,3.00
2018-12-12T10:55:05.231Z,3.00
2018-12-12T10:56:05.457Z,3.06
2018-12-12T10:57:05.935Z,3.06
2018-12-12T10:58:05.285Z,3.06
2018-12-12T10:59:05.845Z,3.06
2018-12-12T11:00:05.134Z,3.06
2018-12-12T11:01:05.205Z,3.06
2018-12-12T11:02:05.931Z,3.12
2018-12-12T11:03:05.457Z,3.12
2018-12-12T11:04:05.130Z,3.12
2018-12-12T11:05:05.291Z,3.12
2018-12-12T11:06:05.943Z,3.12
2018-12-12T11:07:05.452Z,3.12
2018-12-12T11:08:06.027Z,3.12
2018-12-12T11:09:05.373Z,3.12
2018-12-12T11:10:05.501Z,3.12
2018-12-12T11:11:05.931Z,3.19
2018-12-12T11:12:05.062Z,3.19
2018-12-12T11:13:05.281Z,3.19
2018-12-12T11:14:05.367Z,3.19
2018-12-12T11:15:05.531Z,3.19
2018-12-12T11:16:05.291Z,3.25
2018-12-12T11:17:05.930Z,3.25
2018-12-12T11:18:05.537Z,3.31
2018-12-12T11:19:05.700Z,3.31
2018-12-12T11:20:05.758Z,3.31
2018-12-12T11:21:05.845Z,3.31
2018-12-12T11:22:06.053Z,3.38
2018-12-12T11:23:05.541Z,3.38
2018-12-12T11:24:05.926Z,3.38
2018-12-12T11:25:06.609Z,3.38
2018-12-12T11:26:05.840Z,3.38
2018-12-12T11:27:06.190Z,3.31
2018-12-12T11:28:05.134Z,3.25
2018-12-12T11:29:05.759Z,3.25
2018-12-12T11:30:05.941Z,3.31
2018-12-12T11:31:05.154Z,3.31
2018-12-12T11:32:05.712Z,3.31
2018-12-12T11:33:05.291Z,3.31
2018-12-12T11:34:05.705Z,3.38
2018-12-12T11:35:05.766Z,3.38
2018-12-12T11:36:05.288Z,3.38
2018-12-12T11:37:05.531Z,3.44
2018-12-12T11:38:05.145Z,3.44
2018-12-12T11:39:05.317Z,3.44
2018-12-12T11:40:05.453Z,3.38
2018-12-12T11:41:05.551Z,3.38
2018-12-12T11:42:05.606Z,3.38
2018-12-12T11:43:05.865Z,3.44
2018-12-12T11:44:06.033Z,3.44
2018-12-12T11:45:05.150Z,3.44
2018-12-12T11:46:05.124Z,3.50
2018-12-12T11:47:05.363Z,3.50
2018-12-12T11:48:05.936Z,3.50
2018-12-12T11:49:06.102Z,3.50
2018-12-12T11:50:05.128Z,3.50
2018-12-12T11:51:05.207Z,3.50
2018-12-12T11:52:05.425Z,3.50
2018-12-12T11:53:06.027Z,3.50
2018-12-12T11:54:05.614Z,3.56
2018-12-12T11:55:05.201Z,3.50
2018-12-12T11:56:05.612Z,3.56
2018-12-12T11:57:05.931Z,3.56
2018-12-12T11:58:06.181Z,3.56
2018-12-12T11:59:05.133Z,3.56
2018-12-12T12:00:05.524Z,3.56
2018-12-12T12:01:05.682Z,3.56
2018-12-12T12:02:05.292Z,3.56
2018-12-12T12:03:05.459Z,3.56
2018-12-12T12:04:05.785Z,3.56
2018-12-12T12:05:05.855Z,3.50
2018-12-12T12:06:05.636Z,3.50
2018-12-12T12:07:05.525Z,3.50
2018-12-12T12:08:06.087Z,3.50
2018-12-12T12:09:05.454Z,3.50
2018-12-12T12:10:05.779Z,3.50
2018-12-12T12:11:06.092Z,3.44
2018-12-12T12:12:05.302Z,3.38
2018-12-12T12:13:05.366Z,3.44
2018-12-12T12:14:05.932Z,3.38
2018-12-12T12:15:05.068Z,3.38
2018-12-12T12:16:05.376Z,3.38
2018-12-12T12:17:05.947Z,3.38
2018-12-12T12:18:05.450Z,3.38
2018-12-12T12:19:06.023Z,3.38
2018-12-12T12:20:05.213Z,3.38
2018-12-12T12:21:05.773Z,3.38
2018-12-12T12:22:05.909Z,3.38
2018-12-12T12:23:05.122Z,3.38
2018-12-12T12:24:05.618Z,3.38
2018-12-12T12:25:05.765Z,3.38
2018-12-12T12:26:05.376Z,3.38
2018-12-12T12:27:05.142Z,3.44
2018-12-12T12:28:05.384Z,3.38
2018-12-12T12:29:05.376Z,3.38
2018-12-12T12:30:05.458Z,3.38
2018-12-12T12:31:05.533Z,3.44
2018-12-12T12:32:05.707Z,3.38
2018-12-12T12:33:05.691Z,3.44
2018-12-12T12:34:06.017Z,3.44
2018-12-12T12:35:05.933Z,3.44
2018-12-12T12:36:05.468Z,3.44
2018-12-12T12:37:05.711Z,3.44
2018-12-12T12:38:05.851Z,3.44
2018-12-12T12:39:05.845Z,3.38
2018-12-12T12:40:05.932Z,3.44
2018-12-12T12:41:05.608Z,3.38
2018-12-12T12:42:05.232Z,3.38
2018-12-12T12:43:05.206Z,3.38
2018-12-12T12:44:05.851Z,3.38
2018-12-12T12:45:05.542Z,3.38
2018-12-12T12:46:05.544Z,3.38
2018-12-12T12:47:05.057Z,3.31
2018-12-12T12:48:05.221Z,3.31
2018-12-12T12:49:05.699Z,3.31
2018-12-12T12:50:05.375Z,3.31
2018-12-12T12:51:05.444Z,3.31
2018-12-12T12:52:05.043Z,3.31
2018-12-12T12:53:05.613Z,3.31
2018-12-12T12:54:05.605Z,3.31
2018-12-12T12:55:05.218Z,3.31
2018-12-12T12:56:05.294Z,3.31
2018-12-12T12:57:05.367Z,3.31
2018-12-12T12:58:05.933Z,3.31
2018-12-12T12:59:05.535Z,3.25
2018-12-12T13:00:05.144Z,3.25
2018-12-12T13:01:05.326Z,3.25
2018-12-12T13:02:05.207Z,3.25
2018-12-12T13:03:05.847Z,3.25
2018-12-12T13:04:09.570Z,3.25
2018-12-12T13:05:05.336Z,3.25
2018-12-12T13:06:05.614Z,3.25
2018-12-12T13:07:06.004Z,3.25
2018-12-12T13:08:05.127Z,3.19
2018-12-12T13:09:05.766Z,3.19
2018-12-12T13:10:11.310Z,3.19
2018-12-12T13:11:06.017Z,3.19
2018-12-12T13:12:05.490Z,3.19
2018-12-12T13:13:05.810Z,3.19
2018-12-12T13:14:05.215Z,3.19
2018-12-12T13:15:05.286Z,3.19
2018-12-12T13:16:05.948Z,3.19
2018-12-12T13:17:06.024Z,3.19
2018-12-12T13:18:05.137Z,3.19